createdAt,value
2019-05-12T00:00:18.390Z,38.50
2019-05-12T00:02:52.252Z,38.40
2019-05-12T00:05:27.749Z,39.60
2019-05-12T00:08:00.470Z,39.40
2019-05-12T00:10:33.732Z,39.60
2019-05-12T00:13:08.406Z,39.80
2019-05-12T00:15:42.485Z,40.40
2019-05-12T00:18:18.080Z,41.00
2019-05-12T00:20:51.303Z,41.30
2019-05-12T00:23:28.075Z,41.40
2019-05-12T00:25:59.492Z,41.70
2019-05-12T00:28:33.253Z,42.20
2019-05-12T00:31:08.368Z,43.40
2019-05-12T00:33:42.414Z,43.50
2019-05-12T00:36:18.578Z,42.70
2019-05-12T00:38:51.467Z,43.00
2019-05-12T00:41:25.254Z,43.40
2019-05-12T00:43:59.490Z,42.90
2019-05-12T00:46:33.359Z,42.90
2019-05-12T00:49:08.197Z,42.30
2019-05-12T00:51:41.565Z,42.40
2019-05-12T00:54:14.435Z,42.30
2019-05-12T00:56:48.158Z,42.80
2019-05-12T00:59:20.945Z,42.90
2019-05-12T01:01:54.330Z,42.80
2019-05-12T01:04:29.136Z,43.10
2019-05-12T01:07:03.155Z,42.80
2019-05-12T01:09:38.423Z,42.50
2019-05-12T01:12:12.540Z,42.80
2019-05-12T01:14:47.826Z,42.90
2019-05-12T01:17:21.700Z,42.80
2019-05-12T01:19:54.952Z,42.90
2019-05-12T01:22:28.754Z,43.30
2019-05-12T01:25:02.543Z,43.00
2019-05-12T01:27:37.877Z,43.80
2019-05-12T01:30:10.864Z,44.30
2019-05-12T01:32:43.759Z,44.30
2019-05-12T01:35:18.515Z,44.40
2019-05-12T01:37:52.870Z,44.90
2019-05-12T01:40:28.534Z,45.20
2019-05-12T01:43:01.773Z,45.00
2019-05-12T01:45:34.923Z,45.10
2019-05-12T01:48:09.167Z,45.10
2019-05-12T01:50:42.675Z,45.20
2019-05-12T01:53:15.144Z,45.30
2019-05-12T01:55:48.683Z,45.10
2019-05-12T01:58:22.040Z,45.00
2019-05-12T02:00:58.693Z,45.10
2019-05-12T02:03:31.579Z,45.00
2019-05-12T02:06:05.308Z,44.80
2019-05-12T02:08:47.594Z,44.70
2019-05-12T02:11:37.829Z,44.40
2019-05-12T02:14:10.898Z,44.70
2019-05-12T02:16:45.092Z,45.10
2019-05-12T02:19:18.741Z,44.90
2019-05-12T02:21:53.025Z,44.90
2019-05-12T02:24:30.463Z,44.80
2019-05-12T02:27:02.586Z,45.30
2019-05-12T02:29:38.361Z,45.60
2019-05-12T02:32:12.843Z,45.70
2019-05-12T02:34:47.597Z,46.60
2019-05-12T02:37:21.808Z,46.00
2019-05-12T02:39:55.796Z,46.00
2019-05-12T02:42:29.239Z,45.80
2019-05-12T02:45:05.562Z,45.90
2019-05-12T02:47:38.087Z,45.70
2019-05-12T02:50:14.507Z,45.80
2019-05-12T02:52:48.171Z,45.50
2019-05-12T02:55:25.632Z,45.40
2019-05-12T02:57:59.661Z,45.30
2019-05-12T03:00:36.690Z,45.80
2019-05-12T03:03:14.651Z,46.00
2019-05-12T03:05:54.740Z,46.00
2019-05-12T03:08:28.683Z,46.10
2019-05-12T03:11:05.963Z,45.90
2019-05-12T03:13:38.224Z,46.70
2019-05-12T03:16:14.692Z,47.40
2019-05-12T03:18:46.098Z,47.60
2019-05-12T03:21:19.470Z,47.70
2019-05-12T03:23:55.150Z,47.80
2019-05-12T03:26:28.709Z,48.00
2019-05-12T03:29:05.627Z,48.00
2019-05-12T03:31:40.992Z,47.60
2019-05-12T03:34:18.571Z,47.30
2019-05-12T03:36:51.337Z,46.40
2019-05-12T03:39:24.980Z,46.10
2019-05-12T03:41:58.419Z,46.40
2019-05-12T03:44:35.032Z,46.10
2019-05-12T03:47:06.810Z,46.50
2019-05-12T03:49:40.145Z,46.50
2019-05-12T03:52:15.246Z,46.90
2019-05-12T03:54:48.384Z,47.00
2019-05-12T03:57:21.625Z,46.80
2019-05-12T03:59:54.883Z,46.70
2019-05-12T04:02:28.626Z,46.40
2019-05-12T04:05:05.249Z,46.60
2019-05-12T04:07:38.297Z,47.20
2019-05-12T04:10:11.169Z,47.20
2019-05-12T04:12:44.957Z,47.20
2019-05-12T04:15:18.919Z,47.20
2019-05-12T04:17:54.329Z,47.40
2019-05-12T04:20:28.889Z,48.00
2019-05-12T04:23:06.014Z,47.60
2019-05-12T04:25:50.872Z,47.00
2019-05-12T04:28:15.027Z,47.50
2019-05-12T04:30:48.721Z,48.50
2019-05-12T04:33:25.441Z,49.70
2019-05-12T04:35:57.913Z,50.90
2019-05-12T04:38:30.346Z,51.00
2019-05-12T04:41:05.932Z,51.50
2019-05-12T04:43:38.592Z,52.50
2019-05-12T04:46:14.541Z,54.10
2019-05-12T04:48:48.330Z,54.90
2019-05-12T04:51:21.661Z,54.90
2019-05-12T04:53:55.111Z,55.70
2019-05-12T04:56:29.248Z,56.40
2019-05-12T04:59:05.021Z,57.70
2019-05-12T05:01:37.878Z,57.70
2019-05-12T05:04:11.695Z,57.80
2019-05-12T05:06:45.634Z,57.50
2019-05-12T05:09:19.912Z,56.20
2019-05-12T05:11:54.291Z,55.20
2019-05-12T05:14:27.903Z,54.30
2019-05-12T05:17:05.095Z,55.00
2019-05-12T05:19:36.786Z,56.80
2019-05-12T05:22:10.463Z,58.50
2019-05-12T05:24:44.375Z,59.70
2019-05-12T05:27:18.339Z,59.40
2019-05-12T05:29:54.354Z,59.00
2019-05-12T05:32:27.659Z,58.60
2019-05-12T05:35:03.353Z,57.40
2019-05-12T05:37:41.363Z,56.00
2019-05-12T05:40:14.083Z,56.00
2019-05-12T05:42:47.458Z,56.50
2019-05-12T05:45:24.155Z,56.80
2019-05-12T05:47:59.620Z,56.70
2019-05-12T05:50:30.992Z,54.60
2019-05-12T05:53:04.294Z,52.80
2019-05-12T05:55:37.781Z,52.20
2019-05-12T05:58:11.556Z,51.70
2019-05-12T06:00:45.299Z,51.40
2019-05-12T06:03:23.413Z,51.30
2019-05-12T06:05:53.517Z,50.40
2019-05-12T06:08:26.610Z,49.20
2019-05-12T06:11:00.479Z,48.40
2019-05-12T06:13:34.519Z,48.90
2019-05-12T06:16:13.753Z,49.40
2019-05-12T06:18:43.952Z,49.50
2019-05-12T06:21:18.570Z,48.80
2019-05-12T06:23:53.937Z,48.40
2019-05-12T06:26:32.488Z,49.30
2019-05-12T06:29:01.321Z,49.60
2019-05-12T06:31:36.021Z,49.70
2019-05-12T06:34:15.211Z,49.30
2019-05-12T06:36:45.584Z,48.90
2019-05-12T06:39:20.623Z,51.00
2019-05-12T06:41:56.704Z,53.30
2019-05-12T06:44:28.546Z,56.40
2019-05-12T06:47:06.899Z,57.70
2019-05-12T06:49:37.274Z,57.90
2019-05-12T06:52:10.503Z,57.00
2019-05-12T06:54:51.179Z,57.10
2019-05-12T06:57:25.080Z,57.80
2019-05-12T06:59:55.172Z,57.40
2019-05-12T07:02:30.280Z,57.20
2019-05-12T07:05:04.608Z,58.70
2019-05-12T07:07:42.197Z,56.90
2019-05-12T07:10:35.147Z,57.50
2019-05-12T07:12:59.029Z,59.60
2019-05-12T07:15:24.116Z,60.00
2019-05-12T07:18:04.246Z,60.90
2019-05-12T07:20:38.979Z,60.60
2019-05-12T07:23:14.216Z,61.30
2019-05-12T07:25:47.559Z,61.80
2019-05-12T07:28:23.550Z,62.30
2019-05-12T07:30:57.260Z,63.30
2019-05-12T07:33:35.170Z,64.50
2019-05-12T07:36:08.429Z,64.20
2019-05-12T07:38:43.995Z,65.40
2019-05-12T07:41:19.518Z,64.10
2019-05-12T07:43:56.776Z,64.40
2019-05-12T07:46:29.204Z,63.80
2019-05-12T07:49:03.918Z,62.50
2019-05-12T07:51:40.509Z,61.50
2019-05-12T07:54:14.305Z,62.30
2019-05-12T07:56:48.226Z,61.80
2019-05-12T07:59:21.077Z,61.30
2019-05-12T08:01:54.996Z,60.60
2019-05-12T08:04:31.685Z,60.60
2019-05-12T08:07:04.164Z,60.60
2019-05-12T08:09:38.538Z,60.30
2019-05-12T08:12:16.313Z,62.70
2019-05-12T08:14:45.765Z,64.10
2019-05-12T08:17:19.636Z,64.20
2019-05-12T08:19:53.610Z,65.10
2019-05-12T08:22:29.340Z,66.30
2019-05-12T08:25:01.248Z,67.90
2019-05-12T08:27:39.142Z,67.90
2019-05-12T08:30:10.269Z,66.90
2019-05-12T08:32:44.254Z,68.60
2019-05-12T08:35:25.569Z,67.90
2019-05-12T08:37:54.436Z,65.90
2019-05-12T08:40:27.185Z,66.20
2019-05-12T08:43:08.071Z,65.60
2019-05-12T08:45:37.347Z,66.10
2019-05-12T08:48:16.041Z,68.10
2019-05-12T08:50:45.986Z,66.70
2019-05-12T08:53:20.698Z,66.40
2019-05-12T08:55:53.897Z,67.10
2019-05-12T08:58:33.626Z,65.90
2019-05-12T09:01:04.402Z,64.30
2019-05-12T09:03:38.360Z,63.80
2019-05-12T09:06:15.491Z,64.60
2019-05-12T09:08:49.194Z,65.90
2019-05-12T09:11:21.262Z,66.80
2019-05-12T09:14:00.658Z,66.10
2019-05-12T09:16:29.523Z,66.10
2019-05-12T09:19:04.936Z,63.90
2019-05-12T09:21:38.705Z,64.10
2019-05-12T09:24:14.958Z,65.90
2019-05-12T09:26:47.413Z,68.80
2019-05-12T09:29:21.020Z,69.80
2019-05-12T09:31:59.252Z,70.60
2019-05-12T09:34:29.438Z,70.40
2019-05-12T09:37:06.142Z,70.50
2019-05-12T09:39:47.288Z,71.60
2019-05-12T09:42:19.341Z,70.40
2019-05-12T09:44:50.567Z,69.80
2019-05-12T09:47:27.575Z,69.60
2019-05-12T09:50:00.787Z,68.70
2019-05-12T09:52:33.928Z,66.20
2019-05-12T09:55:06.991Z,67.50
2019-05-12T09:57:42.963Z,68.80
2019-05-12T10:00:18.267Z,69.60
2019-05-12T10:02:59.368Z,69.40
2019-05-12T10:05:30.401Z,67.60
2019-05-12T10:08:04.499Z,67.50
2019-05-12T10:10:41.465Z,66.20
2019-05-12T10:13:15.190Z,63.30
2019-05-12T10:15:48.885Z,60.40
2019-05-12T10:18:24.359Z,58.50
2019-05-12T10:20:56.708Z,58.00
2019-05-12T10:23:30.586Z,59.30
2019-05-12T10:26:09.431Z,59.80
2019-05-12T10:28:43.728Z,59.50
2019-05-12T10:31:18.749Z,59.30
2019-05-12T10:33:57.154Z,59.10
2019-05-12T10:36:30.298Z,58.80
2019-05-12T10:39:04.260Z,58.90
2019-05-12T10:41:38.348Z,59.70
2019-05-12T10:44:10.385Z,59.60
2019-05-12T10:46:44.569Z,59.60
2019-05-12T10:49:19.220Z,59.50
2019-05-12T10:51:53.996Z,59.50
2019-05-12T10:54:26.562Z,59.90
2019-05-12T10:56:58.941Z,59.10
2019-05-12T10:59:38.266Z,59.90
2019-05-12T11:02:13.814Z,60.20
2019-05-12T11:04:46.293Z,60.10
2019-05-12T11:07:22.911Z,60.00
2019-05-12T11:09:54.431Z,59.80
2019-05-12T11:12:29.217Z,60.00
2019-05-12T11:15:06.789Z,59.60
2019-05-12T11:17:53.560Z,59.20
2019-05-12T11:20:27.024Z,59.30
2019-05-12T11:22:59.331Z,59.50
2019-05-12T11:25:34.013Z,59.50
2019-05-12T11:28:06.317Z,59.10
2019-05-12T11:30:39.591Z,59.60
2019-05-12T11:33:13.290Z,60.50
2019-05-12T11:35:47.088Z,60.60
2019-05-12T11:38:20.016Z,60.00
2019-05-12T11:40:53.817Z,59.40
2019-05-12T11:43:29.570Z,59.40
2019-05-12T11:46:01.818Z,59.70
2019-05-12T11:48:35.241Z,58.90
2019-05-12T11:51:08.672Z,58.60
2019-05-12T11:53:41.639Z,58.10
2019-05-12T11:56:14.822Z,57.30
2019-05-12T11:58:51.516Z,56.90
2019-05-12T12:01:24.651Z,58.00
2019-05-12T12:03:57.498Z,59.40
2019-05-12T12:06:30.385Z,60.00
2019-05-12T12:09:09.265Z,60.00
2019-05-12T12:11:43.224Z,60.30
2019-05-12T12:14:16.453Z,60.60
2019-05-12T12:16:50.315Z,60.80
2019-05-12T12:19:33.568Z,59.70
2019-05-12T12:21:59.807Z,59.80
2019-05-12T12:24:33.622Z,60.00
2019-05-12T12:27:06.939Z,60.30
2019-05-12T12:29:40.208Z,60.40
2019-05-12T12:32:18.536Z,59.80
2019-05-12T12:34:47.712Z,59.60
2019-05-12T12:37:24.443Z,60.50
2019-05-12T12:39:58.193Z,61.80
2019-05-12T12:42:35.409Z,62.10
2019-05-12T12:45:18.784Z,60.90
2019-05-12T12:47:53.931Z,60.20
2019-05-12T12:50:30.362Z,60.30
2019-05-12T12:53:00.497Z,59.70
2019-05-12T12:55:32.932Z,60.10
2019-05-12T12:58:05.407Z,60.10
2019-05-12T13:00:47.123Z,60.90
2019-05-12T13:03:14.390Z,61.50
2019-05-12T13:05:46.769Z,62.50
2019-05-12T13:08:21.593Z,61.90
2019-05-12T13:10:54.195Z,60.60
2019-05-12T13:13:28.521Z,60.00
2019-05-12T13:16:01.016Z,59.70
2019-05-12T13:18:36.352Z,60.30
2019-05-12T13:21:09.255Z,60.50
2019-05-12T13:23:42.284Z,60.90
2019-05-12T13:26:15.229Z,61.00
2019-05-12T13:28:53.152Z,61.20
2019-05-12T13:31:24.347Z,60.30
2019-05-12T13:33:57.464Z,59.40
2019-05-12T13:36:37.376Z,59.90
2019-05-12T13:39:11.545Z,59.70
2019-05-12T13:41:45.262Z,59.80
2019-05-12T13:44:17.885Z,60.40
2019-05-12T13:46:54.706Z,61.10
2019-05-12T13:49:30.008Z,61.40
2019-05-12T13:52:04.103Z,60.60
2019-05-12T13:54:37.398Z,60.10
2019-05-12T13:57:13.420Z,60.60
2019-05-12T13:59:47.997Z,60.40
2019-05-12T14:02:23.457Z,59.30
2019-05-12T14:05:00.463Z,60.10
2019-05-12T14:07:34.427Z,59.90
2019-05-12T14:10:06.661Z,59.80
2019-05-12T14:12:39.556Z,59.70
2019-05-12T14:15:14.174Z,60.30
2019-05-12T14:17:48.144Z,60.90
2019-05-12T14:20:20.848Z,60.90
2019-05-12T14:22:54.231Z,59.70
2019-05-12T14:25:30.757Z,60.10
2019-05-12T14:28:05.580Z,59.60
2019-05-12T14:30:41.281Z,59.70
2019-05-12T14:33:10.699Z,59.60
2019-05-12T14:35:46.018Z,60.30
2019-05-12T14:38:19.230Z,61.50
2019-05-12T14:40:53.642Z,61.90
2019-05-12T14:43:26.415Z,61.40
2019-05-12T14:46:04.939Z,61.10
2019-05-12T14:48:34.292Z,61.60
2019-05-12T14:51:07.515Z,61.20
2019-05-12T14:53:40.550Z,60.80
2019-05-12T14:56:14.101Z,61.40
2019-05-12T14:58:50.224Z,60.90
2019-05-12T15:01:23.692Z,61.00
2019-05-12T15:03:55.795Z,60.80
2019-05-12T15:06:29.573Z,61.80
2019-05-12T15:09:04.474Z,61.30
2019-05-12T15:11:36.484Z,61.50
2019-05-12T15:14:09.904Z,62.40
2019-05-12T15:16:44.714Z,62.40
2019-05-12T15:19:20.920Z,62.40
2019-05-12T15:21:53.617Z,61.90
2019-05-12T15:24:26.576Z,61.00
2019-05-12T15:27:00.815Z,61.40
2019-05-12T15:29:33.888Z,61.50
2019-05-12T15:32:06.123Z,61.40
2019-05-12T15:34:39.203Z,62.30
2019-05-12T15:37:12.872Z,62.60
2019-05-12T15:39:46.024Z,62.70
2019-05-12T15:42:19.004Z,62.20
2019-05-12T15:44:53.618Z,61.70
2019-05-12T15:47:29.577Z,62.10
2019-05-12T15:50:00.756Z,61.90
2019-05-12T15:52:38.330Z,61.50
2019-05-12T15:55:07.914Z,61.30
2019-05-12T15:57:40.032Z,61.20
2019-05-12T16:00:16.952Z,61.30
2019-05-12T16:02:48.864Z,60.90
2019-05-12T16:05:28.795Z,59.70
2019-05-12T16:07:57.510Z,59.30
2019-05-12T16:10:29.956Z,59.10
2019-05-12T16:13:02.291Z,59.00
2019-05-12T16:15:36.527Z,59.00
2019-05-12T16:18:10.213Z,59.00
2019-05-12T16:20:44.152Z,58.90
2019-05-12T16:23:24.960Z,58.50
2019-05-12T16:25:53.972Z,58.40
2019-05-12T16:28:26.670Z,57.60
2019-05-12T16:31:06.717Z,57.80
2019-05-12T16:33:36.030Z,57.10
2019-05-12T16:36:11.463Z,56.20
2019-05-12T16:38:44.533Z,56.10
2019-05-12T16:41:19.845Z,55.90
2019-05-12T16:43:53.746Z,56.10
2019-05-12T16:46:26.957Z,56.50
2019-05-12T16:49:00.308Z,57.70
2019-05-12T16:51:35.241Z,57.20
2019-05-12T16:54:08.313Z,57.00
2019-05-12T16:56:43.231Z,56.40
2019-05-12T16:59:21.691Z,56.10
2019-05-12T17:01:50.680Z,55.70
2019-05-12T17:04:23.930Z,55.30
2019-05-12T17:06:56.464Z,54.60
2019-05-12T17:09:28.936Z,54.40
2019-05-12T17:12:01.769Z,54.20
2019-05-12T17:14:36.617Z,54.10
2019-05-12T17:17:10.888Z,53.70
2019-05-12T17:19:44.379Z,53.20
2019-05-12T17:22:18.648Z,53.00
2019-05-12T17:24:53.785Z,52.80
2019-05-12T17:27:28.202Z,53.10
2019-05-12T17:30:04.318Z,54.10
2019-05-12T17:32:36.604Z,54.90
2019-05-12T17:35:10.863Z,55.20
2019-05-12T17:37:43.337Z,55.10
2019-05-12T17:40:19.978Z,55.50
2019-05-12T17:42:49.847Z,55.90
2019-05-12T17:45:23.572Z,55.70
2019-05-12T17:48:03.001Z,56.10
2019-05-12T17:50:31.431Z,56.10
2019-05-12T17:53:04.460Z,55.40
2019-05-12T17:55:42.698Z,55.40
2019-05-12T17:58:13.780Z,55.20
2019-05-12T18:00:51.522Z,54.80
2019-05-12T18:03:23.002Z,55.10
2019-05-12T18:05:54.692Z,54.60
2019-05-12T18:08:32.505Z,54.30
2019-05-12T18:11:03.695Z,54.50
2019-05-12T18:13:39.962Z,54.20
2019-05-12T18:16:20.754Z,54.00
2019-05-12T18:18:46.818Z,54.50
2019-05-12T18:21:22.406Z,54.40
2019-05-12T18:23:54.773Z,54.00
2019-05-12T18:26:27.650Z,53.50
2019-05-12T18:29:00.115Z,53.10
2019-05-12T18:31:33.452Z,53.70
2019-05-12T18:34:07.498Z,53.40
2019-05-12T18:36:40.420Z,53.80
2019-05-12T18:39:15.221Z,53.90
2019-05-12T18:41:48.081Z,54.20
2019-05-12T18:44:26.273Z,54.10
2019-05-12T18:46:56.242Z,54.40
2019-05-12T18:49:29.251Z,54.40
2019-05-12T18:52:03.891Z,54.60
2019-05-12T18:54:35.457Z,54.80
2019-05-12T18:57:08.312Z,55.30
2019-05-12T18:59:46.087Z,55.90
2019-05-12T19:02:22.816Z,54.60
2019-05-12T19:04:49.495Z,54.40
2019-05-12T19:07:35.893Z,54.30
2019-05-12T19:09:58.058Z,54.20
2019-05-12T19:12:35.220Z,54.10
2019-05-12T19:15:10.128Z,53.40
2019-05-12T19:17:43.564Z,53.20
2019-05-12T19:20:15.911Z,53.10
2019-05-12T19:22:57.332Z,53.40
2019-05-12T19:25:23.822Z,53.30
2019-05-12T19:28:06.074Z,53.50
2019-05-12T19:30:31.481Z,54.30
2019-05-12T19:33:06.532Z,54.10
2019-05-12T19:35:38.685Z,54.10
2019-05-12T19:38:15.029Z,53.30
2019-05-12T19:40:54.954Z,52.90
2019-05-12T19:43:23.717Z,52.50
2019-05-12T19:46:02.938Z,52.50
2019-05-12T19:48:35.151Z,52.20
2019-05-12T19:51:20.351Z,52.30
2019-05-12T19:53:39.453Z,52.30
2019-05-12T19:56:14.115Z,52.10
2019-05-12T19:58:47.142Z,51.50
2019-05-12T20:01:26.141Z,51.80
2019-05-12T20:03:57.994Z,51.60
2019-05-12T20:06:30.407Z,51.40
2019-05-12T20:09:08.232Z,51.60
2019-05-12T20:11:38.721Z,52.10
2019-05-12T20:14:19.058Z,51.70
2019-05-12T20:16:46.728Z,51.30
2019-05-12T20:19:25.516Z,50.90
2019-05-12T20:21:55.834Z,50.60
2019-05-12T20:24:29.794Z,51.50
2019-05-12T20:27:04.141Z,51.40
2019-05-12T20:29:38.019Z,52.70
2019-05-12T20:32:13.940Z,53.20
2019-05-12T20:34:52.084Z,53.30
2019-05-12T20:37:22.959Z,52.50
2019-05-12T20:40:02.129Z,51.70
2019-05-12T20:42:41.943Z,51.40
2019-05-12T20:45:08.436Z,51.50
2019-05-12T20:47:44.952Z,51.50
2019-05-12T20:50:17.626Z,51.70
2019-05-12T20:52:57.674Z,52.00
2019-05-12T20:55:25.075Z,52.20
2019-05-12T20:57:59.528Z,52.00
2019-05-12T21:00:39.022Z,51.70
2019-05-12T21:03:13.837Z,51.50
2019-05-12T21:05:50.537Z,52.10
2019-05-12T21:08:27.299Z,51.40
2019-05-12T21:11:01.128Z,52.10
2019-05-12T21:13:34.624Z,52.30
2019-05-12T21:16:16.431Z,52.20
2019-05-12T21:18:49.849Z,52.10
2019-05-12T21:21:27.612Z,51.80
2019-05-12T21:23:59.181Z,51.60
2019-05-12T21:26:48.480Z,51.50
2019-05-12T21:29:25.446Z,51.60
2019-05-12T21:32:02.909Z,51.70
2019-05-12T21:34:34.516Z,51.50
2019-05-12T21:37:07.492Z,51.30
2019-05-12T21:39:45.643Z,51.30
2019-05-12T21:42:15.403Z,51.30
2019-05-12T21:44:49.031Z,50.90
2019-05-12T21:47:24.297Z,51.60
2019-05-12T21:49:58.104Z,51.80
2019-05-12T21:52:39.032Z,52.10
2019-05-12T21:55:15.355Z,52.20
2019-05-12T21:57:44.099Z,52.30
2019-05-12T22:00:27.599Z,52.20
2019-05-12T22:03:02.606Z,52.70
2019-05-12T22:05:50.573Z,52.70
2019-05-12T22:08:17.576Z,52.20
2019-05-12T22:10:46.747Z,52.00
2019-05-12T22:13:21.020Z,52.60
2019-05-12T22:15:57.130Z,52.80
2019-05-12T22:18:30.105Z,52.70
2019-05-12T22:21:06.802Z,52.70
2019-05-12T22:23:42.970Z,52.60
2019-05-12T22:26:14.288Z,52.30
2019-05-12T22:28:50.922Z,52.00
2019-05-12T22:31:24.247Z,51.90
2019-05-12T22:33:58.380Z,52.20
2019-05-12T22:36:33.624Z,52.30
2019-05-12T22:39:09.249Z,51.80
2019-05-12T22:41:43.430Z,51.00
2019-05-12T22:44:20.904Z,50.80
2019-05-12T22:46:50.951Z,50.60
2019-05-12T22:49:25.374Z,50.50
2019-05-12T22:52:02.702Z,50.70
2019-05-12T22:54:34.680Z,51.20
2019-05-12T22:57:08.643Z,51.30
2019-05-12T22:59:44.835Z,51.40
2019-05-12T23:02:28.044Z,51.70
2019-05-12T23:04:55.000Z,52.30
2019-05-12T23:07:29.933Z,52.60
2019-05-12T23:10:06.939Z,52.20
2019-05-12T23:12:39.755Z,52.10
2019-05-12T23:15:14.073Z,50.90
2019-05-12T23:17:49.350Z,50.70
2019-05-12T23:20:25.521Z,50.40
2019-05-12T23:22:59.695Z,49.80
2019-05-12T23:25:33.777Z,50.40
2019-05-12T23:28:10.400Z,51.10
2019-05-12T23:30:48.471Z,51.80
2019-05-12T23:33:17.888Z,52.40
2019-05-12T23:35:53.558Z,53.00
2019-05-12T23:38:25.786Z,53.00
2019-05-12T23:40:59.162Z,52.90
2019-05-12T23:43:34.139Z,53.00
2019-05-12T23:46:08.171Z,53.00
2019-05-12T23:48:43.955Z,52.80
2019-05-12T23:51:17.529Z,52.80
2019-05-12T23:53:50.335Z,52.90
2019-05-12T23:56:23.590Z,53.20
2019-05-12T23:58:57.424Z,53.00
